Time;durP1;ratioP1;P1;durP2;ratioP2;P2;SDS_P1;SDS_P2;PMS_P1;PMS_P2;Temp;Humidity;BMP_temperature;BMP_pressure;BME280_temperature;BME280_humidity;BME280_pressure;Samples;Min_cycle;Max_cycle;Signal;HPM_P1;HPM_P2
2021/05/07 00:01:49;;;;;;;4.22;1.35;;;;;;;7.14;53.15;100858.78;4991908;28;20105;-49
2021/05/07 00:04:21;;;;;;;9.10;1.92;;;;;;;7.14;53.26;100858.78;4991267;28;20057;-46
2021/05/07 00:06:51;;;;;;;7.03;2.08;;;;;;;7.09;53.39;100861.69;4983060;28;20046;-48
2021/05/07 00:09:18;;;;;;;5.63;1.88;;;;;;;7.05;53.30;100860.69;4991851;28;20050;-46
2021/05/07 00:11:47;;;;;;;6.32;1.90;;;;;;;7.03;53.47;100857.47;4991523;28;20084;-50
2021/05/07 00:14:13;;;;;;;7.22;1.42;;;;;;;6.99;53.65;100856.47;4991653;28;20050;-48
2021/05/07 00:16:40;;;;;;;12.18;2.38;;;;;;;6.94;53.88;100859.34;4991103;28;20090;-48
2021/05/07 00:19:07;;;;;;;7.18;1.77;;;;;;;6.91;54.27;100857.25;4995050;28;20050;-46
2021/05/07 00:21:39;;;;;;;5.40;1.80;;;;;;;6.89;54.25;100859.50;4994108;28;20045;-48
2021/05/07 00:24:07;;;;;;;11.43;1.80;;;;;;;6.86;53.84;100860.16;4994842;28;20059;-46
2021/05/07 00:26:35;;;;;;;8.70;1.83;;;;;;;6.86;53.96;100862.91;4994392;28;20475;-46
2021/05/07 00:29:02;;;;;;;11.07;2.00;;;;;;;6.90;54.17;100864.69;4995030;28;20077;-47
2021/05/07 00:31:28;;;;;;;6.03;1.88;;;;;;;6.94;53.64;100870.34;4994748;28;20059;-48
2021/05/07 00:33:55;;;;;;;5.28;1.77;;;;;;;6.87;53.92;100867.28;4994361;28;20070;-48
2021/05/07 00:36:21;;;;;;;6.35;1.70;;;;;;;6.87;53.81;100870.03;4994123;28;20046;-47
2021/05/07 00:38:47;;;;;;;6.63;1.38;;;;;;;6.84;54.04;100871.47;4994468;28;20166;-48
2021/05/07 00:41:15;;;;;;;4.63;1.63;;;;;;;6.77;54.12;100873.88;4994176;28;20503;-49
2021/05/07 00:43:42;;;;;;;5.88;1.60;;;;;;;6.78;54.51;100877.44;4994639;28;20443;-48
2021/05/07 00:46:08;;;;;;;7.70;1.77;;;;;;;6.82;54.40;100872.91;4994446;28;20046;-51
2021/05/07 00:48:37;;;;;;;6.07;1.92;;;;;;;6.79;54.45;100876.28;4994703;28;20411;-48
2021/05/07 00:51:04;;;;;;;7.45;2.03;;;;;;;6.79;54.32;100879.03;4976486;28;20073;-48
2021/05/07 00:53:30;;;;;;;5.55;1.60;;;;;;;6.84;54.34;100884.41;4994328;28;20071;-48
2021/05/07 00:55:57;;;;;;;3.75;2.05;;;;;;;6.76;54.66;100886.00;4976688;28;20105;-46
2021/05/07 00:58:24;;;;;;;10.07;2.05;;;;;;;6.71;54.90;100891.63;4994230;28;20373;-49
2021/05/07 01:00:52;;;;;;;6.05;1.80;;;;;;;6.79;54.55;100888.13;4994371;28;20054;-50
2021/05/07 01:03:19;;;;;;;7.07;2.10;;;;;;;6.82;54.43;100892.19;4994098;28;20038;-49
2021/05/07 01:05:46;;;;;;;6.15;1.80;;;;;;;6.82;54.38;100884.75;4993838;28;20038;-46
2021/05/07 01:08:15;;;;;;;4.32;1.55;;;;;;;6.73;54.45;100897.63;4993916;28;20562;-47
2021/05/07 01:10:42;;;;;;;5.20;2.03;;;;;;;6.62;54.75;100888.00;4993630;28;20078;-48
2021/05/07 01:13:08;;;;;;;9.70;2.03;;;;;;;6.48;55.47;100890.88;4993509;28;20066;-47
2021/05/07 01:15:41;;;;;;;5.93;2.88;;;;;;;6.42;55.23;100897.63;4992090;28;20040;-47
2021/05/07 01:18:07;;;;;;;6.00;1.75;;;;;;;6.42;55.92;100888.56;4993917;28;20054;-48
2021/05/07 01:20:35;;;;;;;9.55;1.77;;;;;;;6.41;55.91;100895.97;4993880;28;20403;-49
2021/05/07 01:23:04;;;;;;;7.10;1.90;;;;;;;6.37;55.61;100900.50;4993289;28;20496;-47
2021/05/07 01:25:36;;;;;;;7.80;1.80;;;;;;;6.37;55.84;100907.94;4992887;28;20054;-46
2021/05/07 01:28:05;;;;;;;5.32;1.75;;;;;;;6.44;55.36;100906.38;4993856;28;20089;-46
2021/05/07 01:30:44;;;;;;;3.67;2.05;;;;;;;6.46;55.14;100909.59;4992437;28;20046;-48
2021/05/07 01:33:13;;;;;;;12.20;2.05;;;;;;;6.39;55.13;100903.75;4974398;28;20039;-50
2021/05/07 01:35:40;;;;;;;9.88;2.72;;;;;;;6.33;55.49;100894.00;4982980;28;20165;-47
2021/05/07 01:38:09;;;;;;;7.25;1.63;;;;;;;6.36;55.63;100912.63;4993567;28;20133;-47
2021/05/07 01:40:38;;;;;;;7.95;2.55;;;;;;;6.23;56.10;100905.25;4993448;28;20077;-47
2021/05/07 01:43:06;;;;;;;7.45;1.98;;;;;;;6.15;55.91;100906.00;4992769;28;20137;-47
2021/05/07 01:45:39;;;;;;;5.97;2.30;;;;;;;6.00;56.72;100906.38;4993262;28;20054;-46
2021/05/07 01:48:07;;;;;;;6.55;2.25;;;;;;;5.90;56.66;100917.59;4991579;28;20053;-49
2021/05/07 01:50:38;;;;;;;8.73;2.70;;;;;;;5.71;57.04;100914.16;4986460;28;20755;-47
2021/05/07 01:53:06;;;;;;;5.90;2.35;;;;;;;5.65;57.57;100907.13;4992536;28;20124;-50
2021/05/07 01:55:36;;;;;;;8.75;2.00;;;;;;;5.66;57.42;100906.84;4975850;28;20054;-47
2021/05/07 01:58:04;;;;;;;7.05;1.67;;;;;;;5.78;57.00;100900.78;4991695;28;20050;-51
2021/05/07 02:00:33;;;;;;;4.50;1.73;;;;;;;5.75;56.87;100904.16;4990669;28;20116;-46
2021/05/07 02:03:02;;;;;;;4.32;1.73;;;;;;;5.69;57.09;100905.41;4990761;28;20141;-46
2021/05/07 02:05:32;;;;;;;7.65;1.90;;;;;;;5.70;57.02;100905.09;4992611;28;20058;-48
2021/05/07 02:08:04;;;;;;;7.55;1.80;;;;;;;5.73;57.57;100920.13;4992844;28;20081;-46
2021/05/07 02:10:32;;;;;;;7.22;2.28;;;;;;;5.75;57.14;100915.13;4993201;28;20078;-48
2021/05/07 02:13:00;;;;;;;5.18;2.17;;;;;;;5.74;57.28;100917.09;4975872;28;20050;-48
2021/05/07 02:15:28;;;;;;;6.20;2.38;;;;;;;5.72;56.74;100918.53;4993238;28;20046;-47
2021/05/07 02:17:55;;;;;;;5.65;1.90;;;;;;;5.69;57.32;100916.41;4992097;28;20046;-48
2021/05/07 02:20:24;;;;;;;3.50;1.60;;;;;;;5.62;57.19;100921.47;4992487;28;20046;-46
2021/05/07 02:22:51;;;;;;;5.45;1.80;;;;;;;5.52;57.86;100911.53;4992265;28;20042;-49
2021/05/07 02:25:20;;;;;;;3.65;1.70;;;;;;;5.47;57.63;100909.72;4992742;28;20133;-47
2021/05/07 02:27:48;;;;;;;9.90;1.65;;;;;;;5.45;57.55;100909.19;4992996;28;20050;-47
2021/05/07 02:30:18;;;;;;;6.32;2.35;;;;;;;5.44;57.86;100904.84;4992740;28;20074;-46
2021/05/07 02:32:45;;;;;;;10.35;2.60;;;;;;;5.38;58.12;100917.03;4985828;28;20089;-48
2021/05/07 02:35:12;;;;;;;7.53;2.13;;;;;;;5.35;58.18;100909.41;4992038;28;20176;-49
2021/05/07 02:37:39;;;;;;;3.30;1.70;;;;;;;5.32;58.10;100911.97;4992672;28;20038;-52
2021/05/07 02:40:07;;;;;;;6.80;1.95;;;;;;;5.26;58.04;100914.00;4991101;28;20108;-47
2021/05/07 02:42:34;;;;;;;9.82;2.00;;;;;;;5.15;58.85;100918.06;4992673;28;20046;-47
2021/05/07 02:45:04;;;;;;;7.57;2.03;;;;;;;5.13;58.79;100908.53;4991817;28;20064;-47
2021/05/07 02:47:31;;;;;;;5.82;1.67;;;;;;;5.19;58.56;100912.78;4992069;28;20084;-49
2021/05/07 02:49:58;;;;;;;4.20;1.70;;;;;;;5.23;58.71;100920.09;4989072;28;20452;-48
2021/05/07 02:52:24;;;;;;;6.43;1.73;;;;;;;5.12;59.17;100918.69;4972392;28;20050;-48
2021/05/07 02:54:52;;;;;;;10.45;2.10;;;;;;;5.12;59.27;100924.16;4971868;28;20133;-47
2021/05/07 02:57:18;;;;;;;8.35;2.10;;;;;;;5.09;59.16;100924.75;4986143;28;20570;-46
2021/05/07 02:59:44;;;;;;;6.40;1.52;;;;;;;4.99;59.32;100930.47;4991638;28;20566;-47
2021/05/07 03:02:11;;;;;;;9.75;2.40;;;;;;;4.93;59.30;100931.66;4991996;28;20046;-47
2021/05/07 03:04:37;;;;;;;7.10;1.90;;;;;;;4.90;59.67;100933.09;4991817;28;20484;-48
2021/05/07 03:07:03;;;;;;;6.25;1.90;;;;;;;4.82;59.60;100933.78;4991770;28;20074;-47
2021/05/07 03:09:31;;;;;;;7.55;1.95;;;;;;;4.80;60.23;100922.31;4992145;28;20050;-51
2021/05/07 03:11:57;;;;;;;11.43;2.40;;;;;;;4.74;60.03;100919.94;4991552;28;20042;-47
2021/05/07 03:14:24;;;;;;;7.00;1.67;;;;;;;4.70;59.81;100916.19;4986051;28;20039;-47
2021/05/07 03:16:52;;;;;;;6.10;2.75;;;;;;;4.72;60.12;100919.44;4991147;28;20050;-48
2021/05/07 03:19:18;;;;;;;7.70;1.77;;;;;;;4.70;60.37;100922.50;4991251;28;20046;-48
2021/05/07 03:21:48;;;;;;;5.47;2.25;;;;;;;4.63;60.54;100927.53;4991388;28;20053;-44
2021/05/07 03:24:15;;;;;;;3.60;2.17;;;;;;;4.69;60.40;100925.53;4991793;28;20043;-46
2021/05/07 03:26:42;;;;;;;7.88;1.88;;;;;;;4.63;60.80;100921.25;4973976;28;20053;-44
2021/05/07 03:29:08;;;;;;;3.60;1.73;;;;;;;4.60;60.64;100927.34;4974400;28;20051;-44
2021/05/07 03:31:35;;;;;;;6.80;2.42;;;;;;;4.60;60.87;100933.66;4991452;28;20187;-48
2021/05/07 03:34:03;;;;;;;7.57;1.63;;;;;;;4.59;60.92;100931.19;4990845;28;20050;-45
2021/05/07 03:36:31;;;;;;;5.00;2.03;;;;;;;4.57;60.77;100927.94;4992063;28;20050;-45
2021/05/07 03:38:57;;;;;;;3.63;1.48;;;;;;;4.52;61.01;100934.34;4991450;28;20401;-44
2021/05/07 03:41:24;;;;;;;5.22;2.22;;;;;;;4.56;60.82;100937.28;4990534;28;20046;-47
2021/05/07 03:43:51;;;;;;;7.85;1.80;;;;;;;4.59;60.84;100939.41;4991236;28;20038;-46
2021/05/07 03:46:18;;;;;;;3.70;2.03;;;;;;;4.61;60.69;100931.69;4991354;28;20046;-44
2021/05/07 03:48:47;;;;;;;11.25;2.63;;;;;;;4.57;61.12;100933.44;4991587;28;20685;-49
2021/05/07 03:51:13;;;;;;;7.22;1.98;;;;;;;4.39;61.70;100946.06;4991462;28;20046;-45
2021/05/07 03:53:40;;;;;;;5.70;1.95;;;;;;;4.29;62.02;100935.25;4995374;28;20050;-45
2021/05/07 03:56:09;;;;;;;5.85;1.73;;;;;;;4.41;61.69;100943.03;4995091;28;20447;-45
2021/05/07 03:58:35;;;;;;;6.43;1.90;;;;;;;4.41;61.46;100949.31;4994680;28;20089;-48
2021/05/07 04:01:04;;;;;;;10.13;2.45;;;;;;;4.38;61.63;100952.66;4995696;28;20082;-45
2021/05/07 04:03:31;;;;;;;6.78;2.22;;;;;;;4.36;61.79;100951.31;4995358;28;20097;-47
2021/05/07 04:05:57;;;;;;;3.53;3.17;;;;;;;4.31;61.73;100952.22;4994566;28;20472;-46
2021/05/07 04:08:25;;;;;;;8.02;1.85;;;;;;;4.28;62.00;100948.16;4995125;28;20080;-44
2021/05/07 04:11:00;;;;;;;6.90;2.35;;;;;;;4.27;62.00;100954.75;4994555;28;20439;-44
2021/05/07 04:13:39;;;;;;;7.65;1.90;;;;;;;4.24;62.12;100946.28;4995240;28;20112;-44
2021/05/07 04:16:09;;;;;;;4.10;1.45;;;;;;;4.22;62.56;100948.53;4994135;28;20046;-46
2021/05/07 04:18:40;;;;;;;8.05;2.00;;;;;;;4.19;62.19;100963.63;4994679;28;20082;-44
2021/05/07 04:21:08;;;;;;;8.15;1.73;;;;;;;4.15;62.63;100967.28;4994348;28;20085;-45
2021/05/07 04:23:35;;;;;;;8.13;2.00;;;;;;;4.20;62.39;100972.69;4994662;28;20046;-45
2021/05/07 04:26:02;;;;;;;4.85;1.73;;;;;;;4.25;62.32;100967.94;4994837;28;20051;-43
2021/05/07 04:28:29;;;;;;;8.40;1.88;;;;;;;4.28;62.39;100972.81;4995026;28;20057;-46
2021/05/07 04:30:55;;;;;;;9.13;1.70;;;;;;;4.22;62.91;100967.72;4993679;28;20047;-44
2021/05/07 04:33:21;;;;;;;5.82;1.65;;;;;;;4.24;62.74;100969.03;4994467;28;20038;-43
2021/05/07 04:35:48;;;;;;;7.38;1.55;;;;;;;4.29;63.00;100971.69;4994602;28;20045;-47
2021/05/07 04:38:14;;;;;;;5.85;2.03;;;;;;;4.32;62.97;100981.25;4994283;28;20052;-46
2021/05/07 04:40:41;;;;;;;4.20;2.17;;;;;;;4.28;63.12;100983.78;4994410;28;20128;-46
2021/05/07 04:43:07;;;;;;;3.75;1.85;;;;;;;4.23;63.19;100983.88;4994744;28;20054;-48
2021/05/07 04:45:34;;;;;;;3.50;1.67;;;;;;;4.25;63.56;100997.25;4994715;28;20046;-47
2021/05/07 04:48:01;;;;;;;7.63;2.35;;;;;;;4.24;63.61;100995.63;4994711;28;20575;-48
2021/05/07 04:50:37;;;;;;;9.25;2.15;;;;;;;4.24;63.36;100987.41;4993159;28;20061;-44
2021/05/07 04:53:06;;;;;;;5.95;2.00;;;;;;;4.26;63.56;100991.47;4994493;28;20046;-43
2021/05/07 04:55:33;;;;;;;10.00;1.63;;;;;;;4.25;63.70;100997.25;4994275;28;20043;-48
2021/05/07 04:57:59;;;;;;;5.13;1.50;;;;;;;4.23;63.62;100989.34;4991748;28;20454;-45
2021/05/07 05:00:26;;;;;;;8.55;2.03;;;;;;;4.24;63.33;100990.97;4994469;28;20050;-44
2021/05/07 05:02:53;;;;;;;6.30;1.88;;;;;;;4.22;63.90;100998.66;4994323;28;20060;-44
2021/05/07 05:05:20;;;;;;;6.05;1.73;;;;;;;4.27;63.68;101004.06;4993477;28;20055;-46
2021/05/07 05:07:49;;;;;;;2.95;1.67;;;;;;;4.26;63.81;100999.69;4994022;28;20126;-45
2021/05/07 05:10:15;;;;;;;5.30;2.00;;;;;;;4.30;63.65;100994.44;4994027;28;20149;-45
2021/05/07 05:12:41;;;;;;;5.82;1.90;;;;;;;4.22;64.18;100998.66;4994048;28;20050;-45
2021/05/07 05:15:09;;;;;;;8.55;1.88;;;;;;;4.24;63.80;101001.94;4993983;28;20385;-44
2021/05/07 05:17:35;;;;;;;6.80;1.92;;;;;;;4.19;64.38;101012.13;4990994;28;20042;-44
2021/05/07 05:20:02;;;;;;;5.13;1.83;;;;;;;4.16;64.60;101004.50;4992388;28;20042;-44
2021/05/07 05:22:29;;;;;;;5.90;2.30;;;;;;;4.21;64.41;101018.94;4993798;28;20137;-44
2021/05/07 05:24:55;;;;;;;3.38;1.73;;;;;;;4.24;64.24;101012.06;4993739;28;20150;-44
2021/05/07 05:27:22;;;;;;;7.82;1.67;;;;;;;4.27;64.43;101016.97;4993199;28;20124;-46
2021/05/07 05:29:48;;;;;;;6.03;2.08;;;;;;;4.29;64.20;101018.28;4993532;28;20049;-45
2021/05/07 05:32:15;;;;;;;4.18;1.80;;;;;;;4.26;63.95;101016.13;4992846;28;20077;-46
2021/05/07 05:34:44;;;;;;;6.13;2.08;;;;;;;4.29;64.27;101020.22;4993624;28;20046;-44
2021/05/07 05:37:11;;;;;;;7.97;2.33;;;;;;;4.26;64.25;101023.56;4993602;28;20046;-46
2021/05/07 05:39:37;;;;;;;7.60;3.15;;;;;;;4.25;64.32;101022.75;4993507;28;20508;-45
2021/05/07 05:42:23;;;;;;;10.88;2.10;;;;;;;4.17;64.31;101017.13;4991139;28;20042;-46
2021/05/07 05:44:50;;;;;;;5.93;1.88;;;;;;;4.13;64.93;101016.88;4993879;28;20392;-45
2021/05/07 05:47:16;;;;;;;11.63;2.00;;;;;;;4.15;64.82;101020.16;4992671;28;20088;-44
2021/05/07 05:49:43;;;;;;;4.10;1.65;;;;;;;4.07;65.20;101026.31;4991196;28;20105;-49
2021/05/07 05:52:09;;;;;;;5.03;2.10;;;;;;;4.10;65.32;101028.44;4993150;28;20042;-45
2021/05/07 05:54:35;;;;;;;6.20;1.73;;;;;;;4.14;64.84;101032.22;4975765;28;20042;-47
2021/05/07 05:57:02;;;;;;;5.15;2.10;;;;;;;4.19;65.03;101037.63;4993236;28;20046;-46
2021/05/07 05:59:28;;;;;;;5.88;2.25;;;;;;;4.18;65.17;101035.19;4992627;28;20058;-45
2021/05/07 06:01:54;;;;;;;6.45;2.30;;;;;;;4.19;65.23;101039.53;4993348;28;20412;-44
2021/05/07 06:04:21;;;;;;;5.60;1.77;;;;;;;4.19;65.30;101040.38;4992589;28;20059;-45
2021/05/07 06:06:48;;;;;;;9.88;2.42;;;;;;;4.18;65.45;101041.47;4992679;28;20076;-46
2021/05/07 06:09:14;;;;;;;4.38;2.80;;;;;;;4.17;65.39;101048.06;4993679;28;20031;-47
2021/05/07 06:11:43;;;;;;;6.35;2.30;;;;;;;4.20;65.38;101038.44;4991860;28;20042;-45
2021/05/07 06:14:09;;;;;;;4.70;1.77;;;;;;;4.23;65.73;101046.91;4993263;28;20115;-45
2021/05/07 06:16:36;;;;;;;7.30;1.48;;;;;;;4.22;65.64;101048.00;4991013;28;20082;-48
2021/05/07 06:19:05;;;;;;;4.18;1.95;;;;;;;4.24;65.80;101050.44;4992466;28;20491;-45
2021/05/07 06:21:32;;;;;;;4.20;1.67;;;;;;;4.23;66.13;101044.16;4992146;28;20109;-44
2021/05/07 06:23:58;;;;;;;9.60;1.83;;;;;;;4.28;66.28;101037.78;4992856;28;20042;-44
2021/05/07 06:26:24;;;;;;;5.78;1.92;;;;;;;4.35;66.79;101037.41;4992501;28;20492;-46
2021/05/07 06:28:51;;;;;;;3.08;1.63;;;;;;;4.39;66.83;101033.78;4992765;28;20440;-44
2021/05/07 06:31:17;;;;;;;6.28;3.35;;;;;;;4.47;67.07;101037.78;4991947;28;20555;-44
2021/05/07 06:33:43;;;;;;;4.85;1.80;;;;;;;4.57;66.72;101048.59;4992781;28;20042;-46
2021/05/07 06:36:11;;;;;;;5.40;1.50;;;;;;;4.71;66.61;101054.94;4992467;28;20042;-48
2021/05/07 06:38:38;;;;;;;12.15;2.25;;;;;;;4.77;66.78;101045.50;4992451;28;20096;-47
2021/05/07 06:41:04;;;;;;;8.88;2.15;;;;;;;4.86;66.72;101047.28;4991373;28;20054;-46
2021/05/07 06:43:31;;;;;;;6.93;1.55;;;;;;;4.98;66.19;101038.56;4989171;28;20046;-46
2021/05/07 06:45:59;;;;;;;7.80;2.53;;;;;;;5.07;66.48;101047.75;4992584;28;20050;-45
2021/05/07 06:48:26;;;;;;;5.53;2.08;;;;;;;5.14;66.50;101050.91;4992376;28;20101;-46
2021/05/07 06:50:52;;;;;;;6.05;1.92;;;;;;;5.22;66.38;101050.22;4992263;28;20054;-49
2021/05/07 06:53:20;;;;;;;7.72;2.33;;;;;;;5.23;66.21;101046.38;4992293;28;20054;-45
2021/05/07 06:55:46;;;;;;;11.40;2.58;;;;;;;5.31;66.53;101045.66;4991194;28;20080;-45
2021/05/07 06:58:32;;;;;;;7.70;1.90;;;;;;;5.42;66.60;101047.09;4987362;28;20504;-45
2021/05/07 07:00:59;;;;;;;6.85;1.90;;;;;;;5.41;66.56;101050.97;4983493;28;20133;-47
2021/05/07 07:03:27;;;;;;;6.40;1.60;;;;;;;5.47;66.11;101058.00;4987081;28;20065;-48
2021/05/07 07:05:53;;;;;;;3.75;1.38;;;;;;;5.50;66.29;101057.38;4988390;28;20035;-45
2021/05/07 07:08:20;;;;;;;5.38;1.52;;;;;;;5.58;66.27;101063.28;4989367;28;20216;-46
2021/05/07 07:10:46;;;;;;;10.93;3.05;;;;;;;5.68;66.36;101052.09;4988906;28;20042;-46
2021/05/07 07:13:13;;;;;;;6.82;2.10;;;;;;;5.69;66.25;101051.00;4989157;28;20940;-50
2021/05/07 07:15:39;;;;;;;5.45;1.77;;;;;;;5.71;65.89;101057.81;4988501;28;20529;-45
2021/05/07 07:18:05;;;;;;;6.18;2.35;;;;;;;5.75;66.09;101067.03;4987458;28;20124;-54
2021/05/07 07:20:33;;;;;;;8.93;3.60;;;;;;;5.85;66.34;101064.13;4989686;28;20130;-50
2021/05/07 07:23:00;;;;;;;3.47;1.55;;;;;;;5.95;66.01;101057.63;4989517;28;20050;-51
2021/05/07 07:25:27;;;;;;;7.43;2.05;;;;;;;6.04;66.35;101058.50;4989230;28;20397;-48
2021/05/07 07:27:53;;;;;;;6.20;2.17;;;;;;;6.13;65.84;101053.94;4992405;28;20129;-48
2021/05/07 07:30:20;;;;;;;8.95;2.38;;;;;;;6.25;66.05;101054.19;4992209;28;20100;-50
2021/05/07 07:32:46;;;;;;;9.27;2.25;;;;;;;6.39;65.97;101063.25;4992415;28;20104;-51
2021/05/07 07:35:13;;;;;;;11.35;1.83;;;;;;;6.49;66.40;101068.50;4993968;28;20046;-49
2021/05/07 07:37:39;;;;;;;3.33;1.38;;;;;;;6.62;66.35;101073.16;4993469;28;20046;-52
2021/05/07 07:40:06;;;;;;;6.38;1.65;;;;;;;6.74;66.63;101070.69;4993728;28;20159;-52
2021/05/07 07:42:33;;;;;;;9.98;1.92;;;;;;;6.89;66.92;101082.41;4992283;28;20381;-56
2021/05/07 07:44:59;;;;;;;4.90;2.25;;;;;;;7.04;67.20;101080.09;4993061;28;20061;-48
2021/05/07 07:47:28;;;;;;;8.68;2.38;;;;;;;7.15;67.14;101075.16;4992412;28;20514;-51
2021/05/07 07:49:56;;;;;;;9.10;2.20;;;;;;;7.27;67.35;101090.00;4993732;28;20558;-52
2021/05/07 07:52:22;;;;;;;9.15;2.67;;;;;;;7.43;68.01;101087.66;4974762;28;20094;-46
2021/05/07 07:54:49;;;;;;;10.45;1.73;;;;;;;7.70;68.07;101094.91;4991096;28;20548;-48
2021/05/07 07:57:15;;;;;;;6.97;1.33;;;;;;;7.96;69.03;101096.66;4992660;28;20054;-46
2021/05/07 07:59:42;;;;;;;13.35;2.50;;;;;;;8.19;69.12;101083.56;4992345;28;20145;-47
2021/05/07 08:02:08;;;;;;;8.38;1.77;;;;;;;8.45;70.02;101098.25;4991861;28;20415;-47
2021/05/07 08:04:36;;;;;;;10.40;2.20;;;;;;;8.83;70.61;101089.34;4993253;28;20150;-47
2021/05/07 08:07:03;;;;;;;7.30;1.55;;;;;;;9.32;70.48;101101.81;4993223;28;20389;-52
2021/05/07 08:09:29;;;;;;;6.78;1.70;;;;;;;9.87;69.05;101097.09;4992429;28;20058;-52
2021/05/07 08:11:55;;;;;;;9.60;2.85;;;;;;;10.53;67.44;101089.91;4992578;28;20412;-49
2021/05/07 08:14:27;;;;;;;6.75;1.35;;;;;;;11.21;64.57;101098.78;4993330;28;20555;-49
2021/05/07 08:16:55;;;;;;;7.18;1.95;;;;;;;11.90;62.42;101093.31;4991750;28;20034;-47
2021/05/07 08:19:23;;;;;;;6.00;1.40;;;;;;;12.56;60.09;101100.25;4990895;28;20113;-51
2021/05/07 08:21:50;;;;;;;7.22;2.13;;;;;;;13.24;57.89;101105.84;4992838;28;20498;-51
2021/05/07 08:24:16;;;;;;;8.13;2.10;;;;;;;13.83;55.27;101101.09;4991942;28;20439;-50
2021/05/07 08:26:43;;;;;;;4.68;1.92;;;;;;;14.46;52.70;101101.06;4993135;28;20074;-50
2021/05/07 08:29:09;;;;;;;6.53;2.38;;;;;;;14.94;51.44;101089.41;4993211;28;20078;-50
2021/05/07 08:31:35;;;;;;;9.63;2.55;;;;;;;15.35;49.60;101092.63;4991279;28;20443;-49
2021/05/07 08:34:02;;;;;;;7.00;1.63;;;;;;;15.96;48.45;101092.59;4993012;28;20042;-49
2021/05/07 08:36:28;;;;;;;8.63;2.03;;;;;;;16.23;47.55;101092.25;4992069;28;20519;-52
2021/05/07 08:38:56;;;;;;;5.07;1.83;;;;;;;16.41;46.46;101098.13;4991243;28;20373;-50
2021/05/07 08:41:23;;;;;;;6.47;1.60;;;;;;;16.81;45.05;101094.75;4991337;28;20078;-52
2021/05/07 08:43:52;;;;;;;3.17;1.25;;;;;;;16.88;43.94;101094.84;4992736;28;20042;-49
2021/05/07 08:46:19;;;;;;;3.33;1.05;;;;;;;17.05;43.43;101100.66;4992359;28;20049;-51
2021/05/07 08:48:46;;;;;;;4.13;1.40;;;;;;;17.20;42.67;101090.44;4992029;28;20042;-51
2021/05/07 08:51:12;;;;;;;9.52;1.38;;;;;;;17.14;42.18;101108.75;4991982;28;20510;-51
2021/05/07 08:53:42;;;;;;;6.60;1.20;;;;;;;17.08;41.58;101101.09;4992776;28;20034;-48
2021/05/07 08:56:22;;;;;;;5.25;1.10;;;;;;;17.15;41.24;101112.38;4992067;28;20488;-47
2021/05/07 08:58:49;;;;;;;4.30;1.55;;;;;;;17.24;40.47;101099.69;4992067;28;20051;-49
2021/05/07 09:01:15;;;;;;;4.70;1.42;;;;;;;17.38;40.50;101099.03;4990637;28;20046;-51
2021/05/07 09:03:48;;;;;;;5.95;1.60;;;;;;;17.55;40.25;101101.28;4986048;28;20050;-54
2021/05/07 09:06:18;;;;;;;6.20;1.45;;;;;;;17.58;39.69;101090.09;4993143;28;20120;-48
2021/05/07 09:08:48;;;;;;;3.83;1.55;;;;;;;17.67;39.34;101087.00;4990683;28;20765;-50
2021/05/07 09:11:18;;;;;;;5.85;1.58;;;;;;;17.92;38.21;101082.44;4991608;28;20567;-52
2021/05/07 09:13:47;;;;;;;5.65;1.27;;;;;;;18.11;38.38;101090.59;4992071;28;20049;-51
2021/05/07 09:16:14;;;;;;;4.35;1.35;;;;;;;18.38;37.93;101091.19;4989802;28;20074;-50
2021/05/07 09:18:50;;;;;;;3.47;1.35;;;;;;;18.50;36.71;101102.16;4991560;28;20050;-49
2021/05/07 09:21:17;;;;;;;3.97;2.13;;;;;;;18.44;37.26;101103.66;4992615;28;20064;-52
2021/05/07 09:23:46;;;;;;;2.50;1.20;;;;;;;18.38;36.55;101107.22;4990780;28;20695;-50
2021/05/07 09:26:15;;;;;;;8.95;1.40;;;;;;;18.26;36.00;101102.75;4991761;28;20403;-48
2021/05/07 09:28:56;;;;;;;7.00;1.35;;;;;;;18.28;33.27;101105.94;4990716;28;20081;-52
2021/05/07 09:31:24;;;;;;;9.32;1.08;;;;;;;18.34;35.66;101101.59;4991103;28;20058;-50
2021/05/07 09:33:53;;;;;;;2.15;0.88;;;;;;;18.50;34.88;101102.16;4990018;28;20057;-51
2021/05/07 09:36:24;;;;;;;4.93;1.02;;;;;;;18.33;34.42;101107.56;4990245;28;20058;-50
2021/05/07 09:38:52;;;;;;;5.38;1.02;;;;;;;18.09;34.67;101104.19;4991523;28;20074;-50
2021/05/07 09:41:45;;;;;;;5.65;2.08;;;;;;;17.91;34.54;101102.44;4990306;28;20154;-50
2021/05/07 09:44:22;;;;;;;4.25;0.93;;;;;;;18.06;34.70;101104.16;4989872;28;20569;-52
2021/05/07 09:46:50;;;;;;;9.07;1.42;;;;;;;18.45;34.79;101108.09;4991252;28;20056;-52
2021/05/07 09:49:29;;;;;;;6.80;1.40;;;;;;;18.37;34.01;101098.03;4971988;28;20712;-51
2021/05/07 09:51:57;;;;;;;4.25;0.88;;;;;;;18.46;34.38;101106.06;4990754;28;20052;-52
2021/05/07 09:54:25;;;;;;;4.53;0.82;;;;;;;18.75;34.23;101108.72;4991053;28;20447;-53
2021/05/07 09:56:54;;;;;;;3.33;1.08;;;;;;;18.90;33.93;101103.19;4990512;28;20070;-50
2021/05/07 09:59:22;;;;;;;1.60;0.70;;;;;;;19.19;33.63;101107.72;4990119;28;20058;-52
2021/05/07 10:01:49;;;;;;;5.72;1.55;;;;;;;19.11;33.51;101106.09;4990049;28;20496;-50
2021/05/07 10:04:16;;;;;;;5.43;1.25;;;;;;;19.23;33.29;101100.91;4990151;28;20050;-48
2021/05/07 10:06:43;;;;;;;4.18;1.50;;;;;;;19.30;32.97;101102.97;4990791;28;20049;-50
2021/05/07 10:09:11;;;;;;;4.55;1.48;;;;;;;19.16;33.53;101108.53;4991057;28;20165;-57
2021/05/07 10:11:44;;;;;;;5.88;1.52;;;;;;;19.16;32.42;101116.94;4989793;28;20062;-50
2021/05/07 10:14:15;;;;;;;5.35;1.27;;;;;;;19.03;32.81;101101.66;4972140;28;20050;-50
2021/05/07 10:16:42;;;;;;;3.15;1.08;;;;;;;18.94;32.73;101102.00;4990778;28;20042;-50
2021/05/07 10:19:13;;;;;;;5.57;1.30;;;;;;;18.74;33.00;101101.47;4972253;28;20046;-50
2021/05/07 10:21:45;;;;;;;6.72;1.20;;;;;;;18.72;32.38;101103.88;4990951;28;20061;-55
2021/05/07 10:24:14;;;;;;;4.78;1.20;;;;;;;18.66;32.43;101104.66;4972131;28;20085;-53
2021/05/07 10:26:50;;;;;;;5.00;1.10;;;;;;;18.34;32.49;101098.78;4986403;28;20061;-53
2021/05/07 10:29:27;;;;;;;8.57;1.27;;;;;;;17.99;32.20;101102.13;4971107;28;20073;-49
2021/05/07 10:31:59;;;;;;;5.85;1.13;;;;;;;17.62;33.15;101104.97;4981929;28;20062;-49
2021/05/07 10:34:28;;;;;;;3.33;1.00;;;;;;;17.60;33.12;101103.72;4988148;28;20108;-52
2021/05/07 10:37:13;;;;;;;8.55;1.88;;;;;;;17.77;33.47;101097.50;4972254;28;20039;-54
2021/05/07 10:39:59;;;;;;;5.85;1.25;;;;;;;17.95;33.19;101103.28;4973475;28;20121;-52
2021/05/07 10:42:26;;;;;;;3.42;1.33;;;;;;;17.37;33.83;101103.84;4989675;28;20050;-48
2021/05/07 10:44:53;;;;;;;4.30;0.80;;;;;;;16.54;34.37;101102.34;4989261;28;20046;-48
2021/05/07 10:47:19;;;;;;;3.55;1.05;;;;;;;15.80;34.82;101106.69;4987129;28;20054;-49
2021/05/07 10:49:47;;;;;;;8.25;1.40;;;;;;;14.98;35.11;101107.06;4990249;28;20117;-49
2021/05/07 10:52:15;;;;;;;5.00;1.13;;;;;;;14.42;35.39;101108.56;4989291;28;20057;-50
2021/05/07 10:54:54;;;;;;;2.28;0.60;;;;;;;13.97;35.29;101114.59;4977445;28;20050;-47
2021/05/07 10:57:26;;;;;;;3.53;0.63;;;;;;;13.65;35.18;101113.75;4989360;28;20574;-48
2021/05/07 10:59:53;;;;;;;3.58;0.65;;;;;;;13.45;35.75;101112.00;4989628;28;20058;-51
2021/05/07 11:02:22;;;;;;;3.55;1.05;;;;;;;13.36;36.14;101111.34;4971534;28;20050;-49
2021/05/07 11:04:49;;;;;;;1.20;0.40;;;;;;;13.40;35.78;101120.59;4989445;28;20031;-47
2021/05/07 11:07:30;;;;;;;1.88;0.80;;;;;;;13.32;34.99;101111.25;4988169;28;20113;-49
2021/05/07 11:10:11;;;;;;;1.73;0.50;;;;;;;13.18;36.13;101116.44;4988942;28;20049;-51
2021/05/07 11:12:43;;;;;;;2.07;0.60;;;;;;;13.13;35.77;101115.88;4987295;28;20527;-51
2021/05/07 11:15:28;;;;;;;3.97;0.70;;;;;;;13.04;35.82;101109.59;4988691;28;20165;-51
2021/05/07 11:18:12;;;;;;;4.18;0.50;;;;;;;12.94;36.65;101113.69;4990424;28;20120;-47
2021/05/07 11:20:43;;;;;;;2.88;0.80;;;;;;;13.06;37.12;101107.28;4988009;28;20038;-51
2021/05/07 11:23:10;;;;;;;3.07;0.73;;;;;;;13.32;36.87;101102.09;4989600;28;20213;-48
2021/05/07 11:25:39;;;;;;;3.35;1.90;;;;;;;13.54;37.30;101098.75;4988811;28;20043;-48
2021/05/07 11:28:17;;;;;;;4.18;1.52;;;;;;;13.81;37.33;101091.50;4988474;28;20762;-49
2021/05/07 11:30:55;;;;;;;2.55;0.60;;;;;;;14.12;36.82;101087.88;4989103;28;20043;-49
2021/05/07 11:33:24;;;;;;;2.28;0.90;;;;;;;14.29;36.60;101088.34;4977839;28;20074;-50
2021/05/07 11:36:12;;;;;;;2.97;0.68;;;;;;;14.36;36.37;101084.94;4987811;28;20088;-52